Time;durP1;ratioP1;P1;durP2;ratioP2;P2;SDS_P1;SDS_P2;PMS_P1;PMS_P2;Temp;Humidity;BMP_temperature;BMP_pressure;BME280_temperature;BME280_humidity;BME280_pressure;Samples;Min_cycle;Max_cycle;Signal;HPM_P1;HPM_P2
2022/11/24 00:00:01;;;;;;;12.30;4.72;;;;;;;4.52;89.26;95332.56;2098609;28;20051;-58
2022/11/24 00:01:07;;;;;;;7.80;4.28;;;;;;;4.54;89.52;95341.03;2099337;28;20399;-63
2022/11/24 00:02:08;;;;;;;7.97;4.07;;;;;;;4.55;89.40;95337.59;2098528;28;20055;-58
2022/11/24 00:03:10;;;;;;;12.48;5.10;;;;;;;4.56;89.60;95348.72;2100300;28;20064;-58
2022/11/24 00:04:11;;;;;;;8.27;3.88;;;;;;;4.53;89.08;95343.69;2099286;28;20048;-59
2022/11/24 00:05:12;;;;;;;8.93;4.60;;;;;;;4.50;89.72;95349.78;2099394;28;20029;-58
2022/11/24 00:06:14;;;;;;;11.57;4.40;;;;;;;4.50;89.44;95346.38;2099175;28;20039;-60
2022/11/24 00:07:15;;;;;;;6.65;4.13;;;;;;;4.50;89.24;95344.63;2099314;28;20044;-59
2022/11/24 00:08:17;;;;;;;6.10;3.75;;;;;;;4.53;89.73;95352.22;2099239;28;20043;-60
2022/11/24 00:09:18;;;;;;;6.93;3.85;;;;;;;4.57;89.19;95358.97;2099194;28;20047;-60
2022/11/24 00:10:19;;;;;;;9.23;3.90;;;;;;;4.63;89.22;95358.75;2099293;28;20036;-60
2022/11/24 00:11:22;;;;;;;9.98;3.90;;;;;;;4.68;88.84;95358.59;2099376;28;20051;-60
2022/11/24 00:12:23;;;;;;;12.50;3.88;;;;;;;4.73;88.54;95363.56;2099136;28;20047;-60
2022/11/24 00:13:24;;;;;;;6.63;3.25;;;;;;;4.76;88.27;95363.50;2099145;28;20059;-60
2022/11/24 00:14:25;;;;;;;9.82;3.65;;;;;;;4.74;88.35;95355.81;2099200;28;20152;-60
2022/11/24 00:15:26;;;;;;;7.47;3.63;;;;;;;4.80;88.36;95362.47;2099206;28;20052;-59
2022/11/24 00:16:29;;;;;;;8.68;2.97;;;;;;;4.81;87.95;95370.16;2099198;28;20388;-57
2022/11/24 00:17:30;;;;;;;9.38;3.75;;;;;;;4.81;87.59;95366.72;2098333;28;20404;-58
2022/11/24 00:18:31;;;;;;;9.48;3.42;;;;;;;4.83;87.72;95370.06;2098575;28;20538;-58
2022/11/24 00:19:33;;;;;;;6.40;3.45;;;;;;;4.80;87.51;95360.72;2099186;28;20047;-58
2022/11/24 00:20:34;;;;;;;7.60;3.65;;;;;;;4.83;87.79;95372.66;2099147;28;20043;-57
2022/11/24 00:21:35;;;;;;;6.25;3.13;;;;;;;4.83;87.72;95365.75;2099398;28;20040;-57
2022/11/24 00:22:36;;;;;;;7.93;3.20;;;;;;;4.83;87.76;95372.66;2099236;28;20048;-56
2022/11/24 00:23:37;;;;;;;12.65;3.65;;;;;;;4.86;88.33;95367.41;2099040;28;20048;-56
2022/11/24 00:24:38;;;;;;;7.28;3.10;;;;;;;4.88;87.66;95380.22;2099035;28;20040;-57
2022/11/24 00:25:40;;;;;;;8.60;3.58;;;;;;;4.88;87.40;95375.91;2099141;28;20048;-57
2022/11/24 00:26:42;;;;;;;7.15;2.88;;;;;;;4.89;87.69;95374.16;2099071;28;20452;-57
2022/11/24 00:27:43;;;;;;;6.57;3.42;;;;;;;4.92;87.89;95377.50;2098383;28;20048;-55
2022/11/24 00:28:44;;;;;;;8.88;3.08;;;;;;;4.92;87.59;95377.50;2098440;28;20053;-57
2022/11/24 00:29:45;;;;;;;6.28;3.10;;;;;;;4.89;87.76;95375.00;2098922;28;20055;-57
2022/11/24 00:30:46;;;;;;;6.65;3.28;;;;;;;4.90;87.89;95373.28;2099167;28;20142;-58
2022/11/24 00:31:47;;;;;;;8.05;3.40;;;;;;;4.84;87.54;95374.34;2098308;28;20048;-62
2022/11/24 00:32:48;;;;;;;8.93;2.90;;;;;;;4.84;87.29;95370.03;2098681;28;20044;-59
2022/11/24 00:33:51;;;;;;;9.52;3.63;;;;;;;4.84;87.63;95380.34;2099160;28;20049;-62
2022/11/24 00:34:52;;;;;;;10.15;3.78;;;;;;;4.81;87.96;95380.44;2098320;28;20494;-62
2022/11/24 00:35:56;;;;;;;8.90;3.83;;;;;;;4.81;87.98;95377.00;2099077;28;20031;-61
2022/11/24 00:36:57;;;;;;;9.30;3.38;;;;;;;4.80;87.74;95383.88;2098300;28;20581;-61
2022/11/24 00:37:58;;;;;;;7.70;3.00;;;;;;;4.80;87.97;95383.88;2098247;28;20047;-61
2022/11/24 00:39:01;;;;;;;7.15;3.65;;;;;;;4.80;87.52;95383.88;2099025;28;20067;-61
2022/11/24 00:40:02;;;;;;;5.35;2.75;;;;;;;4.83;88.04;95388.09;2098368;28;20052;-62
2022/11/24 00:41:03;;;;;;;8.20;3.28;;;;;;;4.85;87.97;95389.72;2098576;28;20049;-62
2022/11/24 00:42:04;;;;;;;9.15;2.92;;;;;;;4.88;87.74;95387.94;2098896;28;20032;-62
2022/11/24 00:43:05;;;;;;;6.10;2.78;;;;;;;4.86;87.90;95388.84;2099084;28;20051;-62
2022/11/24 00:44:07;;;;;;;7.22;3.30;;;;;;;4.90;87.95;95399.03;2098976;28;20055;-61
2022/11/24 00:45:08;;;;;;;6.72;3.55;;;;;;;4.90;87.71;95392.13;2098943;28;20040;-60
2022/11/24 00:46:10;;;;;;;7.10;3.55;;;;;;;4.91;87.79;95393.81;2098285;28;20071;-62
2022/11/24 00:47:11;;;;;;;10.60;3.42;;;;;;;4.92;86.97;95402.34;2098851;28;20037;-62
2022/11/24 00:48:12;;;;;;;7.20;3.20;;;;;;;4.91;87.39;95398.13;2098018;28;20044;-62
2022/11/24 00:49:13;;;;;;;9.82;3.20;;;;;;;4.88;87.75;95396.50;2097922;28;20471;-61
2022/11/24 00:50:14;;;;;;;9.05;3.25;;;;;;;4.80;87.62;95390.78;2098850;28;20041;-61
2022/11/24 00:51:16;;;;;;;9.80;3.50;;;;;;;4.85;88.30;95391.47;2098482;28;20507;-61
2022/11/24 00:52:17;;;;;;;8.50;3.22;;;;;;;4.84;87.89;95400.91;2098163;28;20404;-61
2022/11/24 00:53:18;;;;;;;9.15;3.42;;;;;;;4.80;88.19;95398.50;2098915;28;20048;-62
2022/11/24 00:54:19;;;;;;;7.43;3.15;;;;;;;4.82;88.10;95404.44;2098917;28;20059;-62
2022/11/24 00:55:20;;;;;;;10.40;3.17;;;;;;;4.80;87.91;95403.63;2098812;28;20048;-62
2022/11/24 00:56:22;;;;;;;10.88;3.17;;;;;;;4.75;88.29;95403.78;2098893;28;20598;-56
2022/11/24 00:57:23;;;;;;;12.82;3.47;;;;;;;4.75;88.07;95410.66;2098838;28;20040;-55
2022/11/24 00:58:24;;;;;;;7.25;3.10;;;;;;;4.71;88.06;95409.09;2098842;28;20052;-54
2022/11/24 00:59:25;;;;;;;10.23;3.38;;;;;;;4.67;87.92;95403.19;2098219;28;20060;-55
2022/11/24 01:00:26;;;;;;;6.97;3.33;;;;;;;4.61;88.26;95404.25;2098819;28;20059;-54
2022/11/24 01:01:28;;;;;;;9.40;3.72;;;;;;;4.64;87.80;95417.00;2098816;28;20507;-59
2022/11/24 01:02:30;;;;;;;8.95;3.30;;;;;;;4.55;88.40;95409.59;2098084;28;20045;-58
2022/11/24 01:03:31;;;;;;;15.85;3.33;;;;;;;4.40;88.40;95394.66;2097234;28;20052;-58
2022/11/24 01:04:32;;;;;;;9.82;3.35;;;;;;;4.52;88.25;95414.84;2098466;28;20045;-58
2022/11/24 01:05:36;;;;;;;11.20;3.55;;;;;;;4.47;88.96;95431.31;2098796;28;20048;-58
2022/11/24 01:06:37;;;;;;;7.80;3.58;;;;;;;4.41;88.92;95417.78;2098313;28;20048;-58
2022/11/24 01:07:38;;;;;;;9.38;3.65;;;;;;;4.42;89.03;95419.44;2098856;28;20039;-58
2022/11/24 01:08:39;;;;;;;10.32;3.38;;;;;;;4.43;88.99;95425.41;2098813;28;20055;-58
2022/11/24 01:09:42;;;;;;;8.07;3.22;;;;;;;4.33;88.96;95437.75;2098738;28;20044;-58
2022/11/24 01:10:43;;;;;;;9.07;3.53;;;;;;;4.32;89.39;95424.94;2098599;28;20086;-58
2022/11/24 01:12:02;;;;;;;9.02;3.10;;;;;;;4.35;89.00;95435.09;2098180;28;20052;-61
2022/11/24 01:13:03;;;;;;;8.68;3.70;;;;;;;4.40;88.92;95451.22;2098678;28;20063;-61
2022/11/24 01:14:05;;;;;;;8.77;3.20;;;;;;;4.44;89.36;95445.13;2098814;28;20396;-60
2022/11/24 01:15:06;;;;;;;7.40;3.35;;;;;;;4.47;88.83;95447.59;2098657;28;20037;-60
2022/11/24 01:16:22;;;;;;;10.00;3.50;;;;;;;4.52;89.33;95450.00;2098925;28;20041;-61
2022/11/24 01:17:23;;;;;;;6.80;2.88;;;;;;;4.55;88.84;95448.19;2098675;28;20048;-61
2022/11/24 01:18:24;;;;;;;8.85;2.83;;;;;;;4.55;89.26;95443.03;2098685;28;20456;-61
2022/11/24 01:19:25;;;;;;;8.40;3.00;;;;;;;4.58;88.87;95449.81;2098179;28;20037;-61
2022/11/24 01:20:26;;;;;;;11.13;3.80;;;;;;;4.58;89.40;95453.22;2097728;28;20102;-61
2022/11/24 01:21:27;;;;;;;9.45;3.17;;;;;;;4.60;89.03;95450.59;2098838;28;20040;-54
2022/11/24 01:22:28;;;;;;;13.00;3.58;;;;;;;4.63;89.06;95447.94;2098657;28;20060;-54
2022/11/24 01:23:30;;;;;;;10.05;3.28;;;;;;;4.64;88.69;95452.16;2097782;28;20416;-53
2022/11/24 01:24:31;;;;;;;9.77;3.08;;;;;;;4.62;88.22;95441.09;2098724;28;20052;-53
2022/11/24 01:25:32;;;;;;;8.90;3.03;;;;;;;4.65;88.39;95443.56;2098681;28;20491;-53
2022/11/24 01:26:34;;;;;;;7.30;2.83;;;;;;;4.69;87.94;95452.88;2097905;28;20048;-54
2022/11/24 01:27:35;;;;;;;8.00;3.30;;;;;;;4.72;87.66;95459.66;2098680;28;20056;-54
2022/11/24 01:28:36;;;;;;;9.13;2.88;;;;;;;4.70;87.52;95453.69;2098713;28;20044;-53
2022/11/24 01:29:37;;;;;;;7.95;2.88;;;;;;;4.73;88.10;95454.47;2097896;28;20063;-53
2022/11/24 01:30:38;;;;;;;7.50;2.97;;;;;;;4.73;88.17;95453.59;2098762;28;20503;-53
2022/11/24 01:31:39;;;;;;;9.57;3.10;;;;;;;4.72;88.20;95460.47;2098781;28;20062;-54
2022/11/24 01:32:40;;;;;;;10.02;3.42;;;;;;;4.73;87.68;95461.31;2097884;28;20044;-53
2022/11/24 01:33:41;;;;;;;8.48;2.95;;;;;;;4.70;87.58;95451.97;2098579;28;20052;-54
2022/11/24 01:34:42;;;;;;;7.80;2.92;;;;;;;4.70;87.96;95458.84;2098395;28;20052;-53
2022/11/24 01:35:44;;;;;;;10.20;3.17;;;;;;;4.66;87.77;95458.13;2098611;28;20071;-53
2022/11/24 01:36:45;;;;;;;6.40;2.53;;;;;;;4.67;87.80;95469.25;2098517;28;20441;-55
2022/11/24 01:37:46;;;;;;;10.85;3.05;;;;;;;4.66;87.79;95465.00;2097837;28;20049;-55
2022/11/24 01:38:47;;;;;;;10.40;2.50;;;;;;;4.67;87.83;95469.25;2098517;28;20035;-54
2022/11/24 01:39:48;;;;;;;5.70;3.03;;;;;;;4.66;88.20;95470.97;2098616;28;20048;-56
2022/11/24 01:40:49;;;;;;;8.05;2.80;;;;;;;4.68;88.10;95476.06;2098476;28;20060;-56
2022/11/24 01:41:51;;;;;;;7.18;2.97;;;;;;;4.58;87.95;95466.06;2097743;28;20045;-56
2022/11/24 01:42:52;;;;;;;8.38;3.10;;;;;;;4.67;88.17;95480.34;2097813;28;20050;-55
2022/11/24 01:43:54;;;;;;;8.85;3.42;;;;;;;4.66;88.26;95493.28;2097826;28;20040;-54
2022/11/24 01:45:34;;;;;;;6.38;2.90;;;;;;;4.65;88.07;95484.69;2096868;28;20091;-55
2022/11/24 01:46:42;;;;;;;7.65;2.65;;;;;;;4.64;88.17;95490.75;2086271;28;20524;-54
2022/11/24 01:47:43;;;;;;;8.15;2.63;;;;;;;4.64;87.78;95495.91;2088608;28;20048;-54
2022/11/24 01:48:47;;;;;;;8.73;2.85;;;;;;;4.64;87.97;95496.72;2091232;28;20052;-54
2022/11/24 01:49:51;;;;;;;6.25;2.47;;;;;;;4.64;87.68;95511.31;2089207;28;20057;-53
2022/11/24 01:50:58;;;;;;;6.57;2.63;;;;;;;4.52;88.13;95486.84;2089964;28;20191;-54
2022/11/24 01:52:14;;;;;;;7.90;2.80;;;;;;;4.64;88.08;95501.03;2090484;28;20052;-56
2022/11/24 01:53:15;;;;;;;7.28;3.10;;;;;;;4.61;87.73;95509.69;2089225;28;20049;-57
2022/11/24 01:54:19;;;;;;;7.65;3.08;;;;;;;4.62;88.24;95502.81;2080814;28;20049;-57
2022/11/24 01:55:23;;;;;;;7.00;2.92;;;;;;;4.55;88.25;95498.78;2089692;28;20091;-56
2022/11/24 01:56:24;;;;;;;9.43;3.30;;;;;;;4.62;88.24;95511.41;2081614;28;20456;-57
2022/11/24 01:57:28;;;;;;;9.35;2.85;;;;;;;4.59;88.28;95508.06;2089541;28;20041;-56
2022/11/24 01:58:29;;;;;;;7.13;2.75;;;;;;;4.61;88.11;95514.00;2088500;28;20049;-56
2022/11/24 01:59:30;;;;;;;7.30;3.38;;;;;;;4.55;88.27;95511.63;2089831;28;20056;-57
2022/11/24 02:00:31;;;;;;;9.60;2.78;;;;;;;4.51;87.87;95513.44;2097551;28;20404;-57
2022/11/24 02:01:33;;;;;;;7.00;2.88;;;;;;;4.49;88.91;95510.09;2081381;28;20176;-60
2022/11/24 02:02:34;;;;;;;5.80;2.78;;;;;;;4.46;88.23;95512.72;2080556;28;20144;-60
2022/11/24 02:03:38;;;;;;;10.20;3.38;;;;;;;4.46;88.97;95517.88;2089812;28;20084;-60
2022/11/24 02:04:40;;;;;;;9.38;2.95;;;;;;;4.39;88.85;95509.53;2097674;28;20045;-60
2022/11/24 02:05:45;;;;;;;7.78;2.92;;;;;;;4.37;88.93;95516.44;2097484;28;20056;-60
2022/11/24 02:06:46;;;;;;;7.68;3.10;;;;;;;4.36;88.36;95508.78;2098021;28;20049;-60
2022/11/24 02:07:47;;;;;;;7.72;3.25;;;;;;;4.35;89.01;95513.06;2097568;28;20055;-59
2022/11/24 02:09:04;;;;;;;9.35;3.05;;;;;;;4.27;88.87;95506.47;2097603;28;20052;-59
2022/11/24 02:10:08;;;;;;;8.52;2.88;;;;;;;4.22;88.87;95516.88;2089123;28;20053;-59
2022/11/24 02:11:09;;;;;;;10.02;3.28;;;;;;;4.24;89.28;95512.56;2090979;28;20045;-59
2022/11/24 02:12:10;;;;;;;8.07;2.70;;;;;;;4.24;89.38;95527.13;2098256;28;20036;-59
2022/11/24 02:13:12;;;;;;;6.70;2.90;;;;;;;4.18;89.18;95518.72;2098377;28;20048;-59
2022/11/24 02:14:13;;;;;;;7.88;3.42;;;;;;;4.13;89.79;95520.59;2089211;28;20072;-59
2022/11/24 02:15:15;;;;;;;8.05;3.58;;;;;;;4.12;89.57;95524.06;2088893;28;20396;-60
2022/11/24 02:16:16;;;;;;;7.20;3.13;;;;;;;4.05;89.63;95524.28;2098273;28;20041;-54
2022/11/24 02:17:17;;;;;;;6.60;2.88;;;;;;;4.04;90.07;95526.00;2098457;28;20047;-53
2022/11/24 02:18:18;;;;;;;10.07;3.03;;;;;;;4.03;90.16;95523.47;2098371;28;20059;-54
2022/11/24 02:19:39;;;;;;;10.70;3.13;;;;;;;3.99;89.75;95530.44;2097296;28;20048;-54
2022/11/24 02:20:40;;;;;;;7.45;3.33;;;;;;;3.98;90.09;95526.16;2097083;28;20115;-54
2022/11/24 02:21:41;;;;;;;9.23;3.13;;;;;;;3.97;90.34;95527.06;2089328;28;20037;-53
2022/11/24 02:23:07;;;;;;;6.00;3.00;;;;;;;3.97;90.42;95521.91;2089025;28;20045;-54
2022/11/24 02:24:18;;;;;;;9.43;3.17;;;;;;;3.90;89.91;95533.25;2097505;28;20040;-54
2022/11/24 02:25:22;;;;;;;9.82;3.13;;;;;;;3.88;90.40;95530.75;2097518;28;20052;-53
2022/11/24 02:26:40;;;;;;;6.45;2.80;;;;;;;3.89;90.85;95526.44;2096671;28;20048;-53
2022/11/24 02:27:42;;;;;;;7.63;2.50;;;;;;;3.92;90.82;95536.63;2091256;28;20052;-54
2022/11/24 02:28:43;;;;;;;8.10;2.70;;;;;;;3.88;90.46;95532.47;2089458;28;20052;-53
2022/11/24 02:29:44;;;;;;;7.22;2.83;;;;;;;3.88;90.43;95538.44;2089449;28;20040;-54
2022/11/24 02:30:45;;;;;;;8.73;3.15;;;;;;;3.86;90.65;95536.81;2097394;28;20423;-54
2022/11/24 02:31:56;;;;;;;6.43;2.90;;;;;;;3.90;90.74;95538.38;2097593;28;20083;-53
2022/11/24 02:32:57;;;;;;;7.85;3.10;;;;;;;3.88;90.48;95535.88;2089198;28;20060;-54
2022/11/24 02:33:58;;;;;;;9.65;3.40;;;;;;;3.89;91.04;95536.72;2090598;28;20048;-53
2022/11/24 02:35:03;;;;;;;8.63;3.17;;;;;;;3.89;90.69;95539.28;2098359;28;20051;-53
2022/11/24 02:36:05;;;;;;;6.82;2.92;;;;;;;3.88;90.99;95535.03;2097892;28;20503;-53
2022/11/24 02:37:06;;;;;;;7.70;2.90;;;;;;;3.90;90.53;95530.69;2098320;28;20036;-54
2022/11/24 02:38:11;;;;;;;7.85;2.70;;;;;;;3.95;90.90;95545.06;2098440;28;20388;-54
2022/11/24 02:39:12;;;;;;;9.75;3.05;;;;;;;3.93;90.57;95543.47;2096628;28;20051;-54
2022/11/24 02:40:15;;;;;;;8.40;3.40;;;;;;;3.98;90.24;95546.72;2096767;28;20048;-54
2022/11/24 02:41:18;;;;;;;7.28;2.60;;;;;;;3.97;90.64;95547.63;2097574;28;20052;-61
2022/11/24 02:42:19;;;;;;;5.55;2.45;;;;;;;3.99;90.60;95548.41;2088725;28;20060;-61
2022/11/24 02:43:21;;;;;;;6.20;2.72;;;;;;;3.97;90.57;95542.47;2081240;28;20060;-60
2022/11/24 02:44:24;;;;;;;5.68;2.63;;;;;;;3.97;90.73;95545.88;2081264;28;20040;-61
2022/11/24 02:45:26;;;;;;;6.85;2.80;;;;;;;3.96;90.16;95546.78;2097326;28;20401;-60
2022/11/24 02:46:27;;;;;;;4.28;2.53;;;;;;;3.97;90.54;95552.75;2096735;28;20059;-56
2022/11/24 02:47:28;;;;;;;6.35;2.90;;;;;;;4.00;90.78;95552.66;2097600;28;20504;-56
2022/11/24 02:48:29;;;;;;;7.13;2.95;;;;;;;4.05;90.46;95560.25;2098285;28;20507;-56
2022/11/24 02:49:30;;;;;;;7.78;3.10;;;;;;;3.96;90.30;95539.06;2097350;28;20048;-56
2022/11/24 02:50:31;;;;;;;4.82;2.70;;;;;;;4.06;90.25;95557.63;2097538;28;20048;-56
2022/11/24 02:51:33;;;;;;;6.45;2.85;;;;;;;4.08;90.02;95553.28;2098381;28;20476;-57
2022/11/24 02:52:34;;;;;;;8.20;2.90;;;;;;;4.10;90.59;95563.53;2097565;28;20048;-57
2022/11/24 02:53:35;;;;;;;9.50;2.88;;;;;;;4.10;90.13;95556.66;2098154;28;20052;-56
2022/11/24 02:54:36;;;;;;;8.95;2.80;;;;;;;4.09;90.25;95554.97;2098244;28;20048;-57
2022/11/24 02:55:37;;;;;;;5.10;2.70;;;;;;;4.10;90.71;95561.78;2098298;28;20063;-57
2022/11/24 02:56:38;;;;;;;6.05;2.70;;;;;;;4.10;90.05;95559.22;2098342;28;20053;-54
2022/11/24 02:57:40;;;;;;;4.75;2.42;;;;;;;4.11;90.62;95560.06;2098282;28;20045;-55
2022/11/24 02:58:41;;;;;;;4.85;2.72;;;;;;;4.14;90.46;95554.81;2097557;28;20075;-55
2022/11/24 02:59:42;;;;;;;6.10;2.47;;;;;;;4.13;90.45;95560.88;2098256;28;20063;-54
2022/11/24 03:00:43;;;;;;;7.05;2.42;;;;;;;4.17;90.33;95559.88;2097956;28;20081;-54
2022/11/24 03:01:44;;;;;;;6.05;2.80;;;;;;;4.15;90.29;95553.97;2098264;28;20072;-55
2022/11/24 03:02:45;;;;;;;7.35;3.10;;;;;;;4.15;90.09;95562.50;2097972;28;20059;-54
2022/11/24 03:03:46;;;;;;;5.30;2.45;;;;;;;4.16;89.96;95564.19;2097525;28;20056;-54
2022/11/24 03:04:48;;;;;;;7.78;2.60;;;;;;;4.21;89.80;95566.63;2097440;28;20043;-54
2022/11/24 03:05:49;;;;;;;5.25;2.53;;;;;;;4.20;90.14;95562.38;2098236;28;20085;-54
2022/11/24 03:06:50;;;;;;;6.80;2.72;;;;;;;4.25;90.02;95570.81;2098351;28;20051;-60
2022/11/24 03:07:51;;;;;;;3.88;2.00;;;;;;;4.25;89.53;95580.22;2097516;28;20055;-61
2022/11/24 03:08:52;;;;;;;6.30;2.30;;;;;;;4.25;90.26;95572.50;2098443;28;20487;-61
2022/11/24 03:09:53;;;;;;;6.20;2.30;;;;;;;4.28;89.97;95575.00;2098358;28;20120;-60
2022/11/24 03:10:54;;;;;;;3.70;2.00;;;;;;;4.29;90.08;95577.53;2098235;28;20036;-60
2022/11/24 03:11:55;;;;;;;5.35;2.03;;;;;;;4.31;90.12;95572.34;2098353;28;20048;-59
2022/11/24 03:12:56;;;;;;;7.53;2.47;;;;;;;4.33;90.00;95575.69;2098235;28;20037;-59
2022/11/24 03:13:57;;;;;;;5.88;2.00;;;;;;;4.33;89.71;95583.41;2098177;28;20048;-59
2022/11/24 03:14:59;;;;;;;4.40;1.95;;;;;;;4.26;89.81;95566.50;2098186;28;20427;-60
2022/11/24 03:16:00;;;;;;;7.50;2.17;;;;;;;4.37;89.32;95577.31;2097399;28;20045;-59
2022/11/24 03:17:01;;;;;;;4.28;2.05;;;;;;;4.35;89.54;95574.75;2098177;28;20044;-59
2022/11/24 03:18:02;;;;;;;7.15;2.15;;;;;;;4.36;89.81;95576.47;2097469;28;20057;-59
2022/11/24 03:19:03;;;;;;;6.30;2.00;;;;;;;4.39;89.65;95583.25;2098243;28;20044;-58
2022/11/24 03:20:05;;;;;;;4.07;1.60;;;;;;;4.40;89.17;95580.63;2096840;28;20051;-58
2022/11/24 03:21:06;;;;;;;4.53;1.80;;;;;;;4.42;89.14;95576.28;2097529;28;20037;-59
2022/11/24 03:22:07;;;;;;;6.75;2.33;;;;;;;4.43;89.51;95579.69;2098201;28;20049;-59
2022/11/24 03:23:08;;;;;;;6.30;1.98;;;;;;;4.43;89.40;95585.66;2098110;28;20391;-59
2022/11/24 03:24:09;;;;;;;4.85;2.15;;;;;;;4.44;89.07;95576.25;2098230;28;20063;-60
2022/11/24 03:25:10;;;;;;;5.53;1.58;;;;;;;4.46;89.07;95584.72;2098153;28;20064;-59
2022/11/24 03:26:15;;;;;;;3.63;1.60;;;;;;;4.49;89.28;95581.22;2097442;28;20051;-59
2022/11/24 03:27:16;;;;;;;5.43;1.58;;;;;;;4.48;88.55;95582.97;2098018;28;20390;-60
2022/11/24 03:28:18;;;;;;;6.95;1.77;;;;;;;4.49;88.50;95594.09;2099651;28;20036;-60
2022/11/24 03:29:19;;;;;;;6.53;1.60;;;;;;;4.49;88.58;95583.78;2099568;28;20049;-60
2022/11/24 03:30:20;;;;;;;2.88;1.50;;;;;;;4.48;88.84;95588.09;2099660;28;20055;-61
2022/11/24 03:31:21;;;;;;;3.45;1.80;;;;;;;4.50;88.81;95588.06;2099556;28;20048;-54
2022/11/24 03:32:22;;;;;;;4.18;1.50;;;;;;;4.49;88.85;95588.94;2099472;28;20047;-54
2022/11/24 03:33:23;;;;;;;4.63;1.17;;;;;;;4.54;88.19;95593.06;2099433;28;20489;-54
2022/11/24 03:34:25;;;;;;;6.72;1.80;;;;;;;4.56;88.29;95591.28;2099750;28;20048;-54
2022/11/24 03:35:26;;;;;;;5.90;1.55;;;;;;;4.57;88.46;95597.25;2099458;28;20056;-54
2022/11/24 03:36:27;;;;;;;4.45;1.50;;;;;;;4.60;88.37;95594.63;2099410;28;20460;-53
2022/11/24 03:37:28;;;;;;;2.85;1.10;;;;;;;4.62;88.02;95605.69;2099753;28;20035;-54
2022/11/24 03:38:29;;;;;;;3.67;1.55;;;;;;;4.62;88.74;95603.13;2099451;28;20052;-53
2022/11/24 03:39:30;;;;;;;3.95;1.05;;;;;;;4.64;88.00;95599.59;2099556;28;20431;-54
2022/11/24 03:40:31;;;;;;;3.60;0.98;;;;;;;4.64;88.02;95603.91;2099909;28;20028;-54
2022/11/24 03:41:32;;;;;;;4.60;1.30;;;;;;;4.63;88.38;95599.66;2099629;28;20040;-59
2022/11/24 03:42:33;;;;;;;4.43;1.40;;;;;;;4.64;88.30;95604.75;2099339;28;20049;-59
2022/11/24 03:43:34;;;;;;;3.35;1.40;;;;;;;4.62;88.00;95592.81;2099500;28;20029;-59
2022/11/24 03:44:36;;;;;;;6.88;1.30;;;;;;;4.66;88.09;95598.75;2099418;28;20064;-59
2022/11/24 03:45:37;;;;;;;3.55;1.27;;;;;;;4.64;88.19;95599.59;2099588;28;20399;-59
2022/11/24 03:46:38;;;;;;;8.57;1.65;;;;;;;4.64;88.45;95589.31;2099614;28;20051;-56
2022/11/24 03:47:39;;;;;;;5.55;1.27;;;;;;;4.69;88.71;95598.66;2099395;28;20052;-57
2022/11/24 03:48:40;;;;;;;5.75;1.10;;;;;;;4.68;88.23;95599.50;2099477;28;20048;-57
2022/11/24 03:49:41;;;;;;;2.95;0.90;;;;;;;4.70;88.55;95597.75;2099376;28;20059;-56
2022/11/24 03:50:42;;;;;;;2.63;1.10;;;;;;;4.68;87.85;95604.66;2098675;28;20048;-57
2022/11/24 03:51:43;;;;;;;3.03;1.17;;;;;;;4.70;88.41;95597.75;2099482;28;20048;-54
2022/11/24 03:52:45;;;;;;;4.07;1.00;;;;;;;4.70;88.09;95603.72;2099280;28;20048;-53
2022/11/24 03:53:46;;;;;;;3.15;1.08;;;;;;;4.70;87.79;95602.88;2099480;28;20063;-54
2022/11/24 03:54:47;;;;;;;3.95;0.85;;;;;;;4.71;87.63;95599.44;2099392;28;20051;-53
2022/11/24 03:55:48;;;;;;;2.30;1.08;;;;;;;4.71;88.19;95607.16;2099428;28;20116;-54
2022/11/24 03:56:49;;;;;;;2.80;0.80;;;;;;;4.72;88.00;95606.25;2099599;28;20399;-54
2022/11/24 03:57:50;;;;;;;3.40;1.15;;;;;;;4.74;88.18;95604.50;2098646;28;20055;-53
2022/11/24 03:58:51;;;;;;;3.10;1.25;;;;;;;4.73;88.51;95615.66;2098660;28;20048;-53
2022/11/24 03:59:52;;;;;;;4.70;1.20;;;;;;;4.74;87.99;95601.91;2099238;28;20041;-54
2022/11/24 04:00:54;;;;;;;4.65;1.10;;;;;;;4.77;88.17;95612.09;2098573;28;20040;-54
2022/11/24 04:01:55;;;;;;;4.28;1.23;;;;;;;4.74;88.04;95607.91;2098498;28;20040;-54
2022/11/24 04:02:56;;;;;;;4.05;1.00;;;;;;;4.77;88.17;95610.38;2098982;28;20044;-53
2022/11/24 04:03:57;;;;;;;8.68;1.42;;;;;;;4.76;87.75;95613.00;2099360;28;20384;-54
2022/11/24 04:04:59;;;;;;;3.85;1.08;;;;;;;4.76;87.99;95606.13;2099414;28;20031;-54
2022/11/24 04:06:00;;;;;;;4.30;1.20;;;;;;;4.75;87.81;95598.44;2099189;28;20044;-53
2022/11/24 04:07:01;;;;;;;3.40;0.90;;;;;;;4.77;87.61;95607.81;2099410;28;20045;-59
2022/11/24 04:08:04;;;;;;;3.30;0.85;;;;;;;4.76;88.12;95598.41;2099359;28;20024;-59
2022/11/24 04:09:05;;;;;;;2.97;1.00;;;;;;;4.78;88.35;95604.31;2099173;28;20040;-58
2022/11/24 04:10:06;;;;;;;5.20;1.00;;;;;;;4.79;87.96;95605.19;2099368;28;20029;-59
2022/11/24 04:11:07;;;;;;;4.30;1.20;;;;;;;4.79;88.01;95597.47;2098530;28;20048;-58
2022/11/24 04:13:28;;;;;;;2.55;1.35;;;;;;;4.73;88.00;95593.38;2097607;28;20534;-59
2022/11/24 04:14:29;;;;;;;4.63;1.38;;;;;;;4.74;87.46;95601.91;2098600;28;20044;-59
2022/11/24 04:15:30;;;;;;;6.60;1.45;;;;;;;4.73;88.22;95603.66;2099304;28;20052;-59
2022/11/24 04:16:32;;;;;;;4.85;1.10;;;;;;;4.72;88.15;95599.38;2099408;28;20044;-53
2022/11/24 04:17:33;;;;;;;5.80;1.30;;;;;;;4.72;88.52;95603.69;2099111;28;20056;-53
2022/11/24 04:18:34;;;;;;;2.83;1.20;;;;;;;4.70;87.88;95606.28;2099218;28;20071;-53
2022/11/24 04:19:35;;;;;;;3.30;1.17;;;;;;;4.69;88.50;95607.19;2099269;28;20032;-54
2022/11/24 04:20:36;;;;;;;1.63;1.02;;;;;;;4.68;88.63;95612.38;2099170;28;20048;-53
2022/11/24 04:21:37;;;;;;;4.43;1.42;;;;;;;4.65;88.01;95615.88;2099266;28;20345;-55
2022/11/24 04:22:38;;;;;;;4.03;1.10;;;;;;;4.62;88.30;95619.41;2098728;28;20071;-54
2022/11/24 04:23:39;;;;;;;5.47;1.05;;;;;;;4.59;88.35;95616.91;2099025;28;20048;-53
2022/11/24 04:24:40;;;;;;;4.18;1.58;;;;;;;4.55;88.63;95602.47;2099199;28;20044;-54
2022/11/24 04:25:42;;;;;;;6.93;1.27;;;;;;;4.55;88.52;95605.03;2099075;28;20487;-54
2022/11/24 04:26:43;;;;;;;3.42;0.90;;;;;;;4.54;88.09;95608.47;2098439;28;20056;-54
2022/11/24 04:27:45;;;;;;;3.05;0.98;;;;;;;4.50;88.53;95609.47;2099186;28;20048;-54
2022/11/24 04:28:46;;;;;;;4.38;1.38;;;;;;;4.45;88.60;95603.63;2098423;28;20040;-54
2022/11/24 04:29:47;;;;;;;5.05;1.20;;;;;;;4.47;88.96;95619.84;2098398;28;20044;-54
2022/11/24 04:30:48;;;;;;;5.50;1.38;;;;;;;4.46;88.67;95610.44;2097614;28;20059;-54
2022/11/24 04:31:49;;;;;;;9.75;1.50;;;;;;;4.45;88.80;95615.66;2098553;28;20480;-54
2022/11/24 04:32:50;;;;;;;8.85;1.52;;;;;;;4.43;88.95;95610.53;2099163;28;20032;-54
2022/11/24 04:33:51;;;;;;;4.90;1.17;;;;;;;4.45;89.15;95618.22;2099296;28;20063;-54
2022/11/24 04:34:52;;;;;;;6.55;1.40;;;;;;;4.40;89.00;95618.34;2099232;28;20051;-53
2022/11/24 04:35:54;;;;;;;4.47;1.27;;;;;;;4.35;88.51;95607.34;2099014;28;20055;-54
2022/11/24 04:36:55;;;;;;;5.10;1.52;;;;;;;4.36;88.93;95614.19;2099362;28;20468;-57
2022/11/24 04:37:56;;;;;;;2.58;1.10;;;;;;;4.39;89.00;95621.81;2098821;28;20044;-57
2022/11/24 04:38:57;;;;;;;6.28;1.52;;;;;;;4.44;89.22;95625.09;2099000;28;20048;-57
2022/11/24 04:39:58;;;;;;;3.83;1.40;;;;;;;4.36;89.18;95616.75;2099122;28;20040;-57
2022/11/24 04:41:02;;;;;;;3.13;1.15;;;;;;;4.46;88.69;95633.59;2099080;28;20055;-57
2022/11/24 04:42:03;;;;;;;6.22;1.27;;;;;;;4.51;89.05;95631.72;2098952;28;20044;-56
2022/11/24 04:43:04;;;;;;;9.02;1.50;;;;;;;4.49;89.69;95618.09;2099068;28;20468;-57
2022/11/24 04:44:05;;;;;;;5.13;1.20;;;;;;;4.53;88.86;95627.38;2098850;28;20045;-57
2022/11/24 04:45:07;;;;;;;6.30;1.98;;;;;;;4.53;88.74;95634.25;2099076;28;20131;-57
2022/11/24 04:46:09;;;;;;;7.07;1.83;;;;;;;4.53;88.85;95624.81;2098323;28;20049;-57
2022/11/24 04:47:15;;;;;;;4.30;1.60;;;;;;;4.54;89.03;95625.66;2098448;28;20044;-57
2022/11/24 04:48:16;;;;;;;7.88;1.63;;;;;;;4.53;88.74;95634.25;2089955;28;20052;-57
2022/11/24 04:49:17;;;;;;;5.60;1.50;;;;;;;4.53;88.81;95632.53;2089856;28;20087;-56
2022/11/24 04:50:18;;;;;;;4.38;1.33;;;;;;;4.55;88.82;95635.06;2098972;28;20377;-57
2022/11/24 04:51:19;;;;;;;8.05;1.77;;;;;;;4.53;89.34;95634.25;2097628;28;20041;-58
2022/11/24 04:52:21;;;;;;;6.65;1.88;;;;;;;4.43;89.15;95629.38;2098084;28;20052;-58
2022/11/24 04:53:22;;;;;;;18.05;2.20;;;;;;;4.51;89.24;95642.00;2097920;28;20055;-58
2022/11/24 04:54:23;;;;;;;7.07;1.58;;;;;;;4.47;89.51;95640.44;2098062;28;20538;-58
2022/11/24 04:55:24;;;;;;;5.70;1.85;;;;;;;4.39;89.26;95626.94;2098823;28;20052;-58
2022/11/24 04:56:25;;;;;;;7.70;1.95;;;;;;;4.46;89.23;95643.03;2099011;28;20057;-54